createdAt,value
2018-08-31T00:01:11.081Z,98370.41
2018-08-31T00:04:50.195Z,98367.92
2018-08-31T00:07:33.717Z,98362.02
2018-08-31T00:12:35.489Z,98366.62
2018-08-31T00:15:03.834Z,98355.84
2018-08-31T00:17:32.026Z,98352.13
2018-08-31T00:20:00.314Z,98345.52
2018-08-31T00:22:28.610Z,98334.17
2018-08-31T00:26:12.066Z,98346.31
2018-08-31T00:29:08.090Z,98341.00
2018-08-31T00:33:52.057Z,98345.04
2018-08-31T00:37:31.146Z,98347.52
2018-08-31T00:42:15.030Z,98341.75
2018-08-31T00:45:55.418Z,98347.80
2018-08-31T00:48:23.698Z,98345.47
2018-08-31T00:50:51.913Z,98339.95
2018-08-31T00:53:20.166Z,98342.02
2018-08-31T00:55:48.453Z,98341.77
2018-08-31T00:58:16.737Z,98340.37
2018-08-31T01:00:45.784Z,98321.63
2018-08-31T01:03:14.080Z,98327.20
2018-08-31T01:05:42.313Z,98331.98
2018-08-31T01:08:10.598Z,98333.68
2018-08-31T01:10:38.829Z,98336.66
2018-08-31T01:13:07.098Z,98337.38
2018-08-31T01:15:35.365Z,98338.97
2018-08-31T01:18:03.709Z,98334.69
2018-08-31T01:20:32.008Z,98342.05
2018-08-31T01:23:00.237Z,98324.67
2018-08-31T01:25:28.525Z,98338.81
2018-08-31T01:27:56.801Z,98341.84
2018-08-31T01:30:24.995Z,98330.69
2018-08-31T01:32:53.293Z,98331.59
2018-08-31T01:35:21.473Z,98328.12
2018-08-31T01:37:49.745Z,98328.97
2018-08-31T01:40:18.061Z,98323.50
2018-08-31T01:42:46.329Z,98327.27
2018-08-31T01:45:14.513Z,98334.99
2018-08-31T01:47:42.705Z,98335.59
2018-08-31T01:50:10.981Z,98325.63
2018-08-31T01:52:39.214Z,98311.42
2018-08-31T01:55:07.431Z,98328.93
2018-08-31T01:57:35.657Z,98329.03
2018-08-31T02:00:03.929Z,98323.38
2018-08-31T02:02:32.133Z,98321.88
2018-08-31T02:05:00.310Z,98312.94
2018-08-31T02:07:28.557Z,98303.01
2018-08-31T02:09:56.804Z,98310.97
2018-08-31T02:12:24.974Z,98307.24
2018-08-31T02:14:53.142Z,98303.02
2018-08-31T02:17:21.330Z,98293.51
2018-08-31T02:19:49.516Z,98287.56
2018-08-31T02:22:17.713Z,98284.87
2018-08-31T02:24:45.909Z,98280.55
2018-08-31T02:27:14.077Z,98286.30
2018-08-31T02:29:42.281Z,98282.24
2018-08-31T02:32:10.471Z,98285.25
2018-08-31T02:34:38.640Z,98280.29
2018-08-31T02:37:06.837Z,98267.76
2018-08-31T02:39:35.046Z,98272.22
2018-08-31T02:42:03.333Z,98269.58
2018-08-31T02:44:31.517Z,98262.98
2018-08-31T02:46:59.809Z,98253.47
2018-08-31T02:49:27.990Z,98252.17
2018-08-31T02:51:56.161Z,98253.26
2018-08-31T02:54:24.371Z,98237.36
2018-08-31T02:56:52.537Z,98249.20
2018-08-31T02:59:20.727Z,98238.37
2018-08-31T03:01:48.908Z,98239.20
2018-08-31T03:04:17.623Z,98237.61
2018-08-31T03:06:45.797Z,98239.66
2018-08-31T03:09:14.120Z,98240.41
2018-08-31T03:11:42.496Z,98217.66
2018-08-31T03:14:10.630Z,98239.57
2018-08-31T03:16:38.817Z,98244.27
2018-08-31T03:19:08.049Z,98244.61
2018-08-31T03:21:36.242Z,98245.69
2018-08-31T03:24:04.438Z,98258.19
2018-08-31T03:26:32.614Z,98259.23
2018-08-31T03:29:00.829Z,98261.20
2018-08-31T03:31:29.118Z,98258.33
2018-08-31T03:33:57.385Z,98259.36
2018-08-31T03:36:25.556Z,98259.41
2018-08-31T03:38:53.755Z,98259.45
2018-08-31T03:41:21.926Z,98257.02
2018-08-31T03:43:50.106Z,98252.58
2018-08-31T03:46:18.401Z,98253.79
2018-08-31T03:48:46.578Z,98241.27
2018-08-31T03:51:14.842Z,98243.34
2018-08-31T03:53:43.085Z,98249.97
2018-08-31T03:56:11.270Z,98245.59
2018-08-31T03:58:39.450Z,98245.88
2018-08-31T04:01:07.652Z,98251.17
2018-08-31T04:03:35.846Z,98248.48
2018-08-31T04:06:04.122Z,98252.50
2018-08-31T04:08:32.339Z,98251.69
2018-08-31T04:11:00.514Z,98253.13
2018-08-31T04:13:28.683Z,98254.22
2018-08-31T04:15:57.038Z,98257.22
2018-08-31T04:18:25.233Z,98256.83
2018-08-31T04:20:53.535Z,98256.20
2018-08-31T04:23:21.731Z,98252.45
2018-08-31T04:25:50.169Z,98243.27
2018-08-31T04:28:18.406Z,98247.09
2018-08-31T04:30:46.706Z,98250.50
2018-08-31T04:33:15.909Z,98253.59
2018-08-31T04:35:44.185Z,98232.08
2018-08-31T04:38:12.376Z,98246.27
2018-08-31T04:40:40.564Z,98248.50
2018-08-31T04:43:08.770Z,98254.72
2018-08-31T04:45:36.949Z,98243.11
2018-08-31T04:48:05.190Z,98217.80
2018-08-31T04:50:33.573Z,98238.76
2018-08-31T04:53:01.601Z,98240.50
2018-08-31T04:55:29.817Z,98248.87
2018-08-31T04:57:57.996Z,98242.56
2018-08-31T05:00:26.190Z,98245.52
2018-08-31T05:02:54.357Z,98247.75
2018-08-31T05:05:22.548Z,98242.00
2018-08-31T05:07:50.729Z,98237.31
2018-08-31T05:10:18.916Z,98235.09
2018-08-31T05:12:47.104Z,98231.88
2018-08-31T05:15:15.272Z,98234.38
2018-08-31T05:17:43.469Z,98234.45
2018-08-31T05:20:11.667Z,98226.24
2018-08-31T05:22:39.941Z,98227.78
2018-08-31T05:25:08.077Z,98227.25
2018-08-31T05:27:36.273Z,98230.57
2018-08-31T05:30:04.666Z,98226.89
2018-08-31T05:32:32.858Z,98234.41
2018-08-31T05:35:01.037Z,98230.59
2018-08-31T05:37:29.232Z,98226.59
2018-08-31T05:39:57.537Z,98227.79
2018-08-31T05:42:25.717Z,98231.75
2018-08-31T05:44:53.933Z,98229.25
2018-08-31T05:47:22.130Z,98220.38
2018-08-31T05:49:50.314Z,98233.39
2018-08-31T05:52:18.502Z,98234.41
2018-08-31T05:54:46.673Z,98240.33
2018-08-31T05:57:14.857Z,98239.41
2018-08-31T05:59:43.130Z,98241.13
2018-08-31T06:02:11.347Z,98234.29
2018-08-31T06:04:39.505Z,98239.00
2018-08-31T06:07:07.737Z,98241.16
2018-08-31T06:09:35.916Z,98244.52
2018-08-31T06:12:04.140Z,98245.58
2018-08-31T06:14:32.297Z,98241.16
2018-08-31T06:17:00.505Z,98248.09
2018-08-31T06:19:28.757Z,98247.34
2018-08-31T06:21:56.943Z,98248.74
2018-08-31T06:24:25.149Z,98245.02
2018-08-31T06:26:53.337Z,98253.28
2018-08-31T06:29:21.590Z,98253.59
2018-08-31T06:31:49.766Z,98257.19
2018-08-31T06:34:17.940Z,98261.72
2018-08-31T06:36:46.141Z,98262.14
2018-08-31T06:39:14.333Z,98263.33
2018-08-31T06:41:42.521Z,98267.62
2018-08-31T06:44:10.785Z,98258.44
2018-08-31T06:46:38.971Z,98267.22
2018-08-31T06:49:07.188Z,98276.84
2018-08-31T06:51:35.449Z,98266.65
2018-08-31T06:54:03.561Z,98269.90
2018-08-31T06:56:31.743Z,98259.23
2018-08-31T06:58:59.918Z,98264.54
2018-08-31T07:01:28.145Z,98272.68
2018-08-31T07:03:56.453Z,98274.42
2018-08-31T07:06:24.535Z,98272.77
2018-08-31T07:08:52.717Z,98276.17
2018-08-31T07:11:20.894Z,98274.58
2018-08-31T07:13:49.106Z,98270.77
2018-08-31T07:16:17.333Z,98271.19
2018-08-31T07:18:45.537Z,98271.09
2018-08-31T07:21:13.789Z,98278.03
2018-08-31T07:23:41.993Z,98273.05
2018-08-31T07:26:10.372Z,98272.72
2018-08-31T07:28:38.665Z,98277.93
2018-08-31T07:31:07.046Z,98279.89
2018-08-31T07:33:35.258Z,98285.92
2018-08-31T07:36:03.448Z,98288.37
2018-08-31T07:38:31.629Z,98289.42
2018-08-31T07:40:59.859Z,98292.04
2018-08-31T07:43:28.058Z,98285.47
2018-08-31T07:45:56.275Z,98288.69
2018-08-31T07:48:24.462Z,98288.53
2018-08-31T07:50:52.669Z,98285.09
2018-08-31T07:53:20.905Z,98286.25
2018-08-31T07:55:49.117Z,98287.75
2018-08-31T07:58:17.325Z,98289.42
2018-08-31T08:00:45.578Z,98291.72
2018-08-31T08:03:13.780Z,98297.74
2018-08-31T08:05:42.072Z,98292.32
2018-08-31T08:08:10.174Z,98297.28
2018-08-31T08:10:38.366Z,98296.81
2018-08-31T08:13:06.550Z,98298.41
2018-08-31T08:15:34.757Z,98303.66
2018-08-31T08:18:02.962Z,98305.75
2018-08-31T08:20:31.183Z,98308.41
2018-08-31T08:22:59.422Z,98309.23
2018-08-31T08:25:27.601Z,98309.00
2018-08-31T08:27:55.785Z,98304.25
2018-08-31T08:30:23.958Z,98301.66
2018-08-31T08:32:52.162Z,98301.91
2018-08-31T08:35:20.373Z,98300.03
2018-08-31T08:37:48.545Z,98305.62
2018-08-31T08:40:16.863Z,98309.09
2018-08-31T08:42:45.039Z,98307.45
2018-08-31T08:45:13.245Z,98308.14
2018-08-31T08:47:41.432Z,98317.62
2018-08-31T08:50:09.693Z,98315.53
2018-08-31T08:52:44.573Z,98318.77
2018-08-31T08:55:12.793Z,98324.98
2018-08-31T08:57:40.993Z,98323.77
2018-08-31T09:00:09.194Z,98325.81
2018-08-31T09:02:37.401Z,98322.47
2018-08-31T09:05:05.621Z,98325.59
2018-08-31T09:07:33.814Z,98325.48
2018-08-31T09:10:02.069Z,98323.19
2018-08-31T09:12:30.443Z,98323.58
2018-08-31T09:14:58.586Z,98319.84
2018-08-31T09:17:26.774Z,98312.94
2018-08-31T09:19:55.001Z,98324.39
2018-08-31T09:22:23.253Z,98324.83
2018-08-31T09:24:51.498Z,98328.45
2018-08-31T09:27:19.760Z,98329.68
2018-08-31T09:29:48.349Z,98327.38
2018-08-31T09:32:21.861Z,98327.19
2018-08-31T09:34:51.867Z,98325.65
2018-08-31T09:37:20.442Z,98326.72
2018-08-31T09:39:49.512Z,98328.28
2018-08-31T09:42:17.937Z,98327.72
2018-08-31T09:44:46.172Z,98329.83
2018-08-31T09:47:14.842Z,98319.02
2018-08-31T09:49:44.003Z,98324.52
2018-08-31T09:52:12.545Z,98323.92
2018-08-31T09:54:40.764Z,98330.19
2018-08-31T09:57:09.153Z,98326.81
2018-08-31T09:59:37.473Z,98335.02
2018-08-31T10:02:10.717Z,98334.48
2018-08-31T10:04:39.018Z,98329.20
2018-08-31T10:07:07.266Z,98337.19
2018-08-31T10:09:35.704Z,98333.81
2018-08-31T10:12:04.116Z,98329.41
2018-08-31T10:14:32.409Z,98334.61
2018-08-31T10:17:00.734Z,98336.91
2018-08-31T10:19:28.993Z,98334.23
2018-08-31T10:21:57.297Z,98334.48
2018-08-31T10:24:25.610Z,98330.56
2018-08-31T10:26:53.895Z,98335.55
2018-08-31T10:29:22.107Z,98338.48
2018-08-31T10:31:50.319Z,98336.81
2018-08-31T10:34:18.546Z,98337.48
2018-08-31T10:36:46.733Z,98331.02
2018-08-31T10:39:15.457Z,98332.58
2018-08-31T10:41:43.694Z,98327.77
2018-08-31T10:44:11.929Z,98321.25
2018-08-31T10:46:40.250Z,98330.89
2018-08-31T10:49:08.454Z,98326.26
2018-08-31T10:51:37.176Z,98329.60
2018-08-31T10:54:05.422Z,98328.55
2018-08-31T10:56:33.653Z,98328.06
2018-08-31T10:59:01.889Z,98331.48
2018-08-31T11:01:30.125Z,98325.81
2018-08-31T11:03:58.312Z,98330.13
2018-08-31T11:06:26.503Z,98333.37
2018-08-31T11:08:54.718Z,98329.64
2018-08-31T11:11:22.942Z,98335.21
2018-08-31T11:13:51.180Z,98333.25
2018-08-31T11:16:19.374Z,98339.12
2018-08-31T11:18:47.610Z,98333.20
2018-08-31T11:21:15.783Z,98338.67
2018-08-31T11:23:44.006Z,98336.70
2018-08-31T11:26:12.270Z,98346.22
2018-08-31T11:28:40.459Z,98340.55
2018-08-31T11:31:08.649Z,98346.22
2018-08-31T11:33:37.085Z,98340.23
2018-08-31T11:36:05.305Z,98328.53
2018-08-31T11:38:33.497Z,98342.59
2018-08-31T11:41:01.705Z,98339.18
2018-08-31T11:43:29.983Z,98345.99
2018-08-31T11:45:58.160Z,98349.13
2018-08-31T11:48:26.399Z,98342.30
2018-08-31T11:50:54.597Z,98346.16
2018-08-31T11:53:22.813Z,98349.98
2018-08-31T11:55:51.012Z,98344.28
2018-08-31T11:58:19.205Z,98339.52
2018-08-31T12:00:47.422Z,98339.94
2018-08-31T12:03:15.606Z,98342.92
2018-08-31T12:05:43.809Z,98340.61
2018-08-31T12:08:12.036Z,98338.75
2018-08-31T12:10:40.216Z,98339.45
2018-08-31T12:13:08.472Z,98339.06
2018-08-31T12:15:36.646Z,98335.11
2018-08-31T12:18:05.099Z,98340.02
2018-08-31T12:20:33.289Z,98338.20
2018-08-31T12:23:01.519Z,98338.48
2018-08-31T12:25:29.775Z,98339.52
2018-08-31T12:27:57.973Z,98334.70
2018-08-31T12:30:26.193Z,98338.30
2018-08-31T12:32:54.408Z,98339.13
2018-08-31T12:35:22.663Z,98342.68
2018-08-31T12:37:50.869Z,98339.92
2018-08-31T12:40:19.042Z,98336.44
2018-08-31T12:42:47.226Z,98335.18
2018-08-31T12:45:15.417Z,98336.43
2018-08-31T12:47:43.602Z,98339.33
2018-08-31T12:50:11.801Z,98345.48
2018-08-31T12:52:39.972Z,98341.77
2018-08-31T12:55:08.201Z,98346.52
2018-08-31T12:57:36.393Z,98344.29
2018-08-31T13:00:04.677Z,98348.25
2018-08-31T13:02:32.893Z,98346.72
2018-08-31T13:05:01.825Z,98349.17
2018-08-31T13:07:30.009Z,98342.92
2018-08-31T13:09:58.202Z,98343.38
2018-08-31T13:12:26.421Z,98337.13
2018-08-31T13:14:54.618Z,98338.40
2018-08-31T13:17:22.822Z,98337.36
2018-08-31T13:19:51.036Z,98322.03
2018-08-31T13:22:19.246Z,98328.55
2018-08-31T13:24:47.505Z,98322.07
2018-08-31T13:27:15.701Z,98335.52
2018-08-31T13:29:43.891Z,98337.25
2018-08-31T13:32:12.102Z,98339.22
2018-08-31T13:34:40.285Z,98341.89
2018-08-31T13:37:08.508Z,98340.14
2018-08-31T13:39:36.753Z,98337.12
2018-08-31T13:42:04.937Z,98336.45
2018-08-31T13:44:33.130Z,98329.73
2018-08-31T13:47:01.335Z,98320.80
2018-08-31T13:49:29.515Z,98321.27
2018-08-31T13:51:57.725Z,98319.88
2018-08-31T13:54:25.921Z,98315.14
2018-08-31T13:56:54.113Z,98319.06
2018-08-31T13:59:22.309Z,98318.81
2018-08-31T14:01:50.489Z,98312.55
2018-08-31T14:04:18.706Z,98311.98
2018-08-31T14:06:46.913Z,98309.87
2018-08-31T14:09:15.097Z,98312.65
2018-08-31T14:11:43.315Z,98319.04
2018-08-31T14:14:11.967Z,98317.67
2018-08-31T14:16:40.149Z,98325.33
2018-08-31T14:19:09.570Z,98321.85
2018-08-31T14:21:38.073Z,98321.00
2018-08-31T14:24:06.581Z,98322.86
2018-08-31T14:26:34.783Z,98320.17
2018-08-31T14:29:03.010Z,98323.20
2018-08-31T14:31:31.221Z,98325.31
2018-08-31T14:33:59.417Z,98326.13
2018-08-31T14:36:27.624Z,98325.55
2018-08-31T14:38:55.784Z,98326.24
2018-08-31T14:41:23.975Z,98325.16
2018-08-31T14:43:53.924Z,98327.34
2018-08-31T14:46:22.142Z,98323.31
2018-08-31T14:48:50.572Z,98329.19
2018-08-31T14:51:18.859Z,98324.81
2018-08-31T14:53:47.093Z,98329.48
2018-08-31T14:56:15.310Z,98331.80
2018-08-31T14:58:43.699Z,98329.45
2018-08-31T15:03:56.332Z,98322.53
2018-08-31T15:06:24.635Z,98329.95
2018-08-31T15:08:52.822Z,98326.59
2018-08-31T15:11:21.317Z,98320.64
2018-08-31T15:13:49.506Z,98320.67
2018-08-31T15:16:17.746Z,98310.48
2018-08-31T15:18:45.953Z,98320.52
2018-08-31T15:21:14.135Z,98315.33
2018-08-31T15:23:42.341Z,98305.84
2018-08-31T15:26:10.521Z,98315.79
2018-08-31T15:28:38.730Z,98318.82
2018-08-31T15:31:06.902Z,98312.19
2018-08-31T15:33:35.093Z,98313.47
2018-08-31T15:36:03.281Z,98311.16
2018-08-31T15:38:31.458Z,98322.95
2018-08-31T15:40:59.661Z,98310.16
2018-08-31T15:43:27.837Z,98311.93
2018-08-31T15:45:56.034Z,98319.11
2018-08-31T15:48:24.246Z,98319.89
2018-08-31T15:50:52.441Z,98310.27
2018-08-31T15:53:20.642Z,98318.45
2018-08-31T15:55:49.956Z,98314.38
2018-08-31T15:58:18.183Z,98316.82
2018-08-31T16:00:46.462Z,98319.05
2018-08-31T16:03:14.756Z,98306.02
2018-08-31T16:05:43.113Z,98302.76
2018-08-31T16:08:12.833Z,98325.05
2018-08-31T16:10:41.541Z,98318.97
2018-08-31T16:13:09.769Z,98321.85
2018-08-31T16:15:37.959Z,98321.50
2018-08-31T16:18:06.222Z,98314.45
2018-08-31T16:20:34.437Z,98321.30
2018-08-31T16:23:02.766Z,98314.05
2018-08-31T16:25:31.005Z,98320.67
2018-08-31T16:27:59.261Z,98324.03
2018-08-31T16:30:27.442Z,98310.44
2018-08-31T16:32:56.164Z,98303.63
2018-08-31T16:35:24.785Z,98320.85
2018-08-31T16:37:52.985Z,98320.85
2018-08-31T16:40:21.254Z,98324.55
2018-08-31T16:42:49.600Z,98312.08
2018-08-31T16:45:17.817Z,98324.45
2018-08-31T16:47:46.109Z,98328.05
2018-08-31T16:50:14.376Z,98324.45
2018-08-31T16:52:42.561Z,98319.72
2018-08-31T16:55:10.929Z,98325.48
2018-08-31T16:57:39.210Z,98323.83
2018-08-31T17:00:07.581Z,98331.52
2018-08-31T17:02:35.824Z,98321.77
2018-08-31T17:05:04.114Z,98330.58
2018-08-31T17:07:32.325Z,98323.05
2018-08-31T17:10:00.565Z,98333.56
2018-08-31T17:12:28.773Z,98334.40
2018-08-31T17:14:56.982Z,98334.09
2018-08-31T17:17:25.838Z,98337.58
2018-08-31T17:19:54.058Z,98341.61
2018-08-31T17:22:22.261Z,98345.67
2018-08-31T17:24:50.482Z,98344.86
2018-08-31T17:27:23.827Z,98349.75
2018-08-31T17:29:52.120Z,98344.86
2018-08-31T17:32:25.605Z,98343.36
2018-08-31T17:34:59.097Z,98345.25
2018-08-31T17:37:32.944Z,98343.86
2018-08-31T17:40:01.178Z,98348.60
2018-08-31T17:42:32.934Z,98349.64
2018-08-31T17:45:02.649Z,98358.66
2018-08-31T17:47:31.718Z,98352.17
2018-08-31T17:50:00.197Z,98360.19
2018-08-31T17:52:28.463Z,98361.45
2018-08-31T17:54:56.750Z,98359.84
2018-08-31T17:57:25.349Z,98359.73
2018-08-31T17:59:53.617Z,98358.45
2018-08-31T18:02:22.049Z,98367.14
2018-08-31T18:04:50.293Z,98366.11
2018-08-31T18:07:18.683Z,98375.63
2018-08-31T18:09:46.945Z,98373.17
2018-08-31T18:12:15.093Z,98356.13
2018-08-31T18:14:43.293Z,98369.59
2018-08-31T18:17:11.490Z,98373.98
2018-08-31T18:19:39.682Z,98375.38
2018-08-31T18:22:07.893Z,98379.08
2018-08-31T18:24:36.082Z,98383.00
2018-08-31T18:27:05.713Z,98385.35
2018-08-31T18:29:34.202Z,98388.47
2018-08-31T18:32:02.478Z,98393.91
2018-08-31T18:34:30.760Z,98397.97
2018-08-31T18:36:59.016Z,98403.66
2018-08-31T18:39:27.174Z,98398.77
2018-08-31T18:41:55.558Z,98401.09
2018-08-31T18:44:23.959Z,98396.00
2018-08-31T18:46:52.281Z,98402.27
2018-08-31T18:49:20.518Z,98399.23
2018-08-31T18:51:48.846Z,98396.91
2018-08-31T18:54:17.259Z,98408.98
2018-08-31T18:56:45.510Z,98413.05
2018-08-31T18:59:13.825Z,98406.55
2018-08-31T19:01:42.177Z,98415.13
2018-08-31T19:04:10.489Z,98411.05
2018-08-31T19:06:38.759Z,98417.21
2018-08-31T19:09:08.032Z,98418.02
2018-08-31T19:11:37.273Z,98411.06
2018-08-31T19:14:05.669Z,98417.67
2018-08-31T19:16:34.025Z,98421.61
2018-08-31T19:19:02.256Z,98423.69
2018-08-31T19:21:30.534Z,98426.59
2018-08-31T19:23:58.857Z,98423.34
2018-08-31T19:26:27.173Z,98425.20
2018-08-31T19:28:55.458Z,98427.75
2018-08-31T19:31:23.819Z,98423.47
2018-08-31T19:33:52.126Z,98432.73
2018-08-31T19:36:20.445Z,98430.41
2018-08-31T19:38:48.911Z,98435.05
2018-08-31T19:41:17.182Z,98443.05
2018-08-31T19:43:45.497Z,98441.66
2018-08-31T19:46:13.722Z,98437.34
2018-08-31T19:48:42.047Z,98437.48
2018-08-31T19:51:10.332Z,98443.61
2018-08-31T19:53:38.653Z,98450.32
2018-08-31T19:56:06.937Z,98441.39
2018-08-31T19:58:35.224Z,98447.97
2018-08-31T20:01:03.474Z,98449.14
2018-08-31T20:03:31.871Z,98445.39
2018-08-31T20:06:00.201Z,98451.58
2018-08-31T20:08:28.483Z,98454.13
2018-08-31T20:10:56.710Z,98454.59
2018-08-31T20:13:25.039Z,98456.21
2018-08-31T20:15:53.361Z,98456.48
2018-08-31T20:18:21.879Z,98462.04
2018-08-31T20:20:50.173Z,98466.43
2018-08-31T20:23:18.481Z,98465.86
2018-08-31T20:25:46.669Z,98472.89
2018-08-31T20:28:14.869Z,98469.80
2018-08-31T20:30:43.065Z,98470.61
2018-08-31T20:33:11.266Z,98473.95
2018-08-31T20:35:39.457Z,98481.08
2018-08-31T20:38:07.669Z,98473.05
2018-08-31T20:40:35.981Z,98473.92
2018-08-31T20:43:04.807Z,98479.47
2018-08-31T20:45:32.915Z,98482.60
2018-08-31T20:48:01.105Z,98484.16
2018-08-31T20:50:29.335Z,98481.16
2018-08-31T20:52:57.673Z,98484.77
2018-08-31T20:55:26.317Z,98488.80
2018-08-31T20:57:54.541Z,98487.55
2018-08-31T21:00:22.833Z,98483.94
2018-08-31T21:02:51.105Z,98490.76
2018-08-31T21:05:19.444Z,98487.16
2018-08-31T21:07:47.693Z,98492.49
2018-08-31T21:10:15.948Z,98493.36
2018-08-31T21:12:44.248Z,98489.02
2018-08-31T21:15:12.560Z,98489.48
2018-08-31T21:17:40.889Z,98486.55
2018-08-31T21:20:09.183Z,98491.63
2018-08-31T21:22:37.435Z,98490.27
2018-08-31T21:25:05.815Z,98485.80
2018-08-31T21:27:34.173Z,98484.23
2018-08-31T21:30:02.462Z,98482.38
2018-08-31T21:32:31.143Z,98487.11
2018-08-31T21:35:04.689Z,98481.91
2018-08-31T21:37:33.195Z,98478.94
2018-08-31T21:40:05.802Z,98479.52
2018-08-31T21:42:34.109Z,98487.55
2018-08-31T21:45:02.330Z,98484.08
2018-08-31T21:47:30.653Z,98483.03
2018-08-31T21:49:58.995Z,98481.34
2018-08-31T21:52:27.211Z,98484.25
2018-08-31T21:54:55.466Z,98482.98
2018-08-31T21:57:23.764Z,98487.59
2018-08-31T21:59:52.718Z,98486.90
2018-08-31T22:02:21.118Z,98479.78
2018-08-31T22:04:49.413Z,98482.59
2018-08-31T22:07:17.766Z,98482.29
2018-08-31T22:09:46.037Z,98493.45
2018-08-31T22:12:14.278Z,98488.37
2018-08-31T22:14:42.522Z,98493.01
2018-08-31T22:17:10.800Z,98494.41
2018-08-31T22:19:39.116Z,98492.53
2018-08-31T22:22:07.509Z,98495.31
2018-08-31T22:24:36.521Z,98491.92
2018-08-31T22:27:04.887Z,98487.16
2018-08-31T22:29:33.088Z,98490.02
2018-08-31T22:32:01.286Z,98487.94
2018-08-31T22:34:29.832Z,98492.36
2018-08-31T22:36:58.117Z,98492.23
2018-08-31T22:39:26.388Z,98493.75
2018-08-31T22:41:54.743Z,98499.17
2018-08-31T22:44:22.990Z,98493.41
2018-08-31T22:46:51.219Z,98492.84
2018-08-31T22:49:19.802Z,98494.23
2018-08-31T22:51:48.105Z,98494.36
2018-08-31T22:54:16.341Z,98488.67
2018-08-31T22:56:44.731Z,98479.61
2018-08-31T22:59:13.113Z,98486.94
2018-08-31T23:01:41.494Z,98479.08
2018-08-31T23:04:09.684Z,98474.01
2018-08-31T23:06:37.922Z,98460.65
2018-08-31T23:09:06.174Z,98464.64
2018-08-31T23:11:34.517Z,98464.34
2018-08-31T23:14:02.805Z,98473.66
2018-08-31T23:16:31.046Z,98477.48
2018-08-31T23:18:59.352Z,98475.13
2018-08-31T23:21:27.579Z,98479.56
2018-08-31T23:23:55.829Z,98477.70
2018-08-31T23:26:24.164Z,98480.47
2018-08-31T23:28:52.609Z,98478.65
2018-08-31T23:31:20.917Z,98483.29
2018-08-31T23:33:49.327Z,98476.87
2018-08-31T23:36:17.549Z,98480.91
2018-08-31T23:38:45.889Z,98469.67
2018-08-31T23:41:14.181Z,98480.00
2018-08-31T23:43:42.399Z,98483.16
2018-08-31T23:46:10.688Z,98481.17
2018-08-31T23:48:38.978Z,98473.75
2018-08-31T23:51:07.449Z,98471.80
2018-08-31T23:53:35.834Z,98470.05
2018-08-31T23:56:04.075Z,98464.25
2018-08-31T23:58:32.321Z,98467.90
